createdAt,value
2019-04-03T00:00:40.779Z,27.73
2019-04-03T00:03:11.716Z,28.17
2019-04-03T00:05:42.583Z,25.85
2019-04-03T00:08:12.984Z,27.82
2019-04-03T00:10:43.978Z,27.75
2019-04-03T00:13:14.669Z,26.48
2019-04-03T00:15:45.289Z,26.17
2019-04-03T00:18:16.692Z,25.82
2019-04-03T00:20:48.823Z,25.25
2019-04-03T00:23:20.649Z,25.10
2019-04-03T00:25:52.370Z,24.70
2019-04-03T00:28:23.509Z,24.85
2019-04-03T00:30:53.862Z,23.45
2019-04-03T00:33:24.381Z,23.22
2019-04-03T00:35:54.818Z,23.90
2019-04-03T00:38:25.212Z,24.70
2019-04-03T00:40:55.743Z,22.73
2019-04-03T00:43:26.121Z,23.07
2019-04-03T00:45:56.588Z,23.70
2019-04-03T00:48:26.992Z,23.73
2019-04-03T00:50:57.705Z,24.92
2019-04-03T00:53:28.831Z,23.73
2019-04-03T00:55:59.498Z,22.82
2019-04-03T00:58:36.866Z,22.62
2019-04-03T01:01:08.796Z,23.67
2019-04-03T01:03:39.432Z,22.17
2019-04-03T01:06:10.057Z,21.77
2019-04-03T01:08:40.632Z,22.90
2019-04-03T01:11:11.390Z,22.05
2019-04-03T01:13:42.167Z,22.40
2019-04-03T01:16:12.995Z,21.05
2019-04-03T01:18:43.549Z,21.80
2019-04-03T01:21:14.161Z,20.20
2019-04-03T01:23:44.732Z,21.15
2019-04-03T01:26:15.320Z,20.55
2019-04-03T01:28:46.090Z,21.02
2019-04-03T01:31:16.688Z,20.72
2019-04-03T01:33:47.230Z,20.23
2019-04-03T01:36:18.258Z,20.43
2019-04-03T01:38:49.715Z,20.90
2019-04-03T01:41:21.618Z,20.68
2019-04-03T01:43:53.868Z,20.00
2019-04-03T01:46:27.240Z,20.00
2019-04-03T01:48:58.649Z,19.55
2019-04-03T01:51:30.319Z,18.82
2019-04-03T01:54:02.888Z,19.30
2019-04-03T01:56:33.851Z,18.90
2019-04-03T01:59:06.568Z,18.67
2019-04-03T02:01:38.637Z,18.95
2019-04-03T02:04:12.108Z,18.50
2019-04-03T02:06:43.746Z,17.95
2019-04-03T02:09:16.009Z,18.90
2019-04-03T02:11:47.611Z,18.45
2019-04-03T02:14:21.035Z,18.77
2019-04-03T02:16:53.460Z,18.27
2019-04-03T02:19:26.276Z,18.42
2019-04-03T02:21:58.502Z,17.80
2019-04-03T02:24:31.120Z,18.20
2019-04-03T02:27:03.140Z,18.27
2019-04-03T02:29:33.482Z,18.15
2019-04-03T02:32:04.320Z,18.30
2019-04-03T02:34:36.115Z,18.45
2019-04-03T02:37:07.230Z,17.30
2019-04-03T02:39:37.961Z,17.48
2019-04-03T02:42:09.854Z,17.60
2019-04-03T02:44:41.265Z,17.07
2019-04-03T02:47:12.110Z,16.57
2019-04-03T02:49:43.686Z,17.20
2019-04-03T02:52:14.670Z,16.82
2019-04-03T02:54:45.932Z,16.85
2019-04-03T02:57:17.847Z,15.28
2019-04-03T02:59:49.139Z,16.82
2019-04-03T03:02:20.264Z,16.50
2019-04-03T03:04:53.923Z,16.40
2019-04-03T03:07:23.726Z,16.00
2019-04-03T03:09:55.232Z,15.90
2019-04-03T03:12:27.685Z,15.80
2019-04-03T03:14:59.483Z,16.02
2019-04-03T03:17:30.640Z,16.15
2019-04-03T03:20:06.519Z,15.23
2019-04-03T03:22:35.809Z,15.95
2019-04-03T03:25:07.644Z,15.25
2019-04-03T03:27:41.618Z,14.70
2019-04-03T03:30:30.531Z,15.38
2019-04-03T03:32:43.858Z,15.88
2019-04-03T03:35:20.058Z,15.20
2019-04-03T03:37:47.580Z,15.78
2019-04-03T03:40:18.208Z,14.68
2019-04-03T03:42:49.303Z,14.85
2019-04-03T03:45:21.063Z,14.58
2019-04-03T03:47:52.263Z,14.63
2019-04-03T03:50:26.269Z,14.23
2019-04-03T03:52:57.135Z,13.83
2019-04-03T03:55:27.579Z,13.85
2019-04-03T03:57:58.679Z,13.85
2019-04-03T04:00:29.551Z,14.38
2019-04-03T04:03:00.375Z,14.25
2019-04-03T04:05:31.160Z,13.72
2019-04-03T04:08:02.145Z,13.10
2019-04-03T04:10:35.818Z,13.30
2019-04-03T04:13:05.341Z,14.83
2019-04-03T04:15:35.888Z,13.30
2019-04-03T04:18:06.616Z,13.90
2019-04-03T04:20:38.523Z,13.08
2019-04-03T04:23:09.611Z,12.95
2019-04-03T04:25:43.222Z,13.75
2019-04-03T04:28:12.644Z,12.45
2019-04-03T04:30:45.020Z,13.20
2019-04-03T04:33:16.943Z,12.40
2019-04-03T04:35:51.405Z,13.08
2019-04-03T04:38:20.592Z,13.68
2019-04-03T04:40:51.561Z,11.93
2019-04-03T04:43:22.074Z,12.13
2019-04-03T04:45:52.990Z,12.53
2019-04-03T04:48:24.111Z,12.73
2019-04-03T04:50:55.478Z,12.20
2019-04-03T04:53:29.362Z,12.15
2019-04-03T04:55:58.755Z,14.18
2019-04-03T04:58:29.552Z,15.98
2019-04-03T05:01:00.252Z,15.20
2019-04-03T05:03:30.918Z,19.00
2019-04-03T05:06:01.634Z,22.27
2019-04-03T05:08:32.980Z,22.93
2019-04-03T05:11:05.571Z,22.93
2019-04-03T05:13:36.523Z,23.67
2019-04-03T05:16:07.171Z,24.60
2019-04-03T05:18:37.730Z,24.77
2019-04-03T05:21:08.299Z,25.35
2019-04-03T05:23:39.230Z,26.10
2019-04-03T05:26:10.132Z,26.17
2019-04-03T05:28:53.102Z,25.20
2019-04-03T05:31:13.394Z,24.02
2019-04-03T05:33:44.222Z,22.15
2019-04-03T05:36:17.097Z,21.10
2019-04-03T05:38:47.660Z,20.45
2019-04-03T05:41:19.608Z,19.92
2019-04-03T05:43:50.430Z,18.50
2019-04-03T05:46:21.392Z,18.35
2019-04-03T05:48:52.321Z,18.30
2019-04-03T05:51:23.046Z,18.55
2019-04-03T05:53:54.500Z,18.32
2019-04-03T05:56:25.912Z,17.07
2019-04-03T05:59:00.384Z,15.50
2019-04-03T06:01:29.098Z,15.98
2019-04-03T06:03:59.678Z,16.35
2019-04-03T06:06:30.548Z,15.35
2019-04-03T06:09:01.552Z,15.03
2019-04-03T06:11:32.331Z,14.00
2019-04-03T06:14:03.270Z,14.10
2019-04-03T06:16:33.734Z,13.20
2019-04-03T06:19:06.389Z,12.60
2019-04-03T06:21:37.228Z,12.58
2019-04-03T06:24:08.016Z,13.13
2019-04-03T06:26:38.848Z,12.63
2019-04-03T06:29:09.550Z,13.10
2019-04-03T06:31:40.313Z,12.90
2019-04-03T06:34:10.772Z,12.18
2019-04-03T06:36:41.837Z,12.18
2019-04-03T06:39:12.523Z,11.88
2019-04-03T06:41:43.052Z,12.35
2019-04-03T06:44:16.240Z,11.22
2019-04-03T06:46:46.888Z,11.48
2019-04-03T06:49:17.654Z,11.18
2019-04-03T06:51:49.431Z,10.65
2019-04-03T06:54:20.473Z,10.88
2019-04-03T06:56:52.921Z,11.63
2019-04-03T06:59:23.709Z,10.68
2019-04-03T07:01:54.328Z,10.82
2019-04-03T07:04:24.862Z,10.80
2019-04-03T07:06:56.618Z,10.82
2019-04-03T07:09:35.219Z,10.35
2019-04-03T07:12:00.232Z,10.35
2019-04-03T07:14:30.786Z,10.18
2019-04-03T07:17:02.533Z,10.30
2019-04-03T07:19:34.267Z,10.00
2019-04-03T07:22:04.841Z,10.10
2019-04-03T07:24:35.587Z,11.00
2019-04-03T07:27:06.961Z,10.68
2019-04-03T07:29:37.877Z,9.73
2019-04-03T07:32:08.355Z,10.38
2019-04-03T07:34:39.066Z,9.50
2019-04-03T07:37:09.869Z,9.70
2019-04-03T07:39:40.833Z,10.00
2019-04-03T07:42:11.832Z,9.20
2019-04-03T07:44:42.737Z,10.03
2019-04-03T07:47:13.280Z,10.40
2019-04-03T07:49:44.282Z,10.23
2019-04-03T07:52:16.554Z,10.08
2019-04-03T07:54:47.432Z,10.60
2019-04-03T07:57:18.099Z,10.32
2019-04-03T07:59:48.533Z,9.85
2019-04-03T08:02:19.175Z,10.35
2019-04-03T08:04:50.376Z,10.43
2019-04-03T08:07:21.091Z,10.75
2019-04-03T08:09:51.584Z,10.40
2019-04-03T08:12:22.549Z,11.15
2019-04-03T08:14:53.382Z,10.48
2019-04-03T08:17:24.324Z,10.40
2019-04-03T08:19:55.267Z,10.08
2019-04-03T08:22:25.795Z,10.68
2019-04-03T08:24:56.491Z,10.68
2019-04-03T08:27:26.937Z,9.93
2019-04-03T08:29:57.476Z,10.32
2019-04-03T08:32:29.132Z,9.95
2019-04-03T08:35:02.377Z,10.32
2019-04-03T08:37:32.786Z,10.45
2019-04-03T08:40:03.796Z,10.08
2019-04-03T08:42:34.358Z,10.05
2019-04-03T08:45:06.607Z,9.83
2019-04-03T08:47:37.735Z,10.38
2019-04-03T08:50:09.900Z,10.50
2019-04-03T08:52:40.882Z,10.38
2019-04-03T08:55:14.024Z,10.65
2019-04-03T08:57:45.854Z,10.68
2019-04-03T09:00:17.625Z,10.35
2019-04-03T09:02:48.448Z,10.60
2019-04-03T09:05:19.732Z,10.45
2019-04-03T09:07:50.799Z,10.82
2019-04-03T09:10:21.819Z,10.25
2019-04-03T09:12:52.611Z,10.75
2019-04-03T09:15:23.307Z,10.40
2019-04-03T09:17:53.993Z,10.75
2019-04-03T09:20:24.769Z,11.45
2019-04-03T09:22:55.343Z,11.28
2019-04-03T09:25:25.938Z,11.43
2019-04-03T09:27:56.547Z,10.25
2019-04-03T09:30:27.200Z,9.63
2019-04-03T09:33:00.192Z,9.95
2019-04-03T09:35:32.078Z,10.25
2019-04-03T09:38:02.679Z,10.25
2019-04-03T09:40:33.169Z,10.63
2019-04-03T09:43:03.947Z,9.98
2019-04-03T09:45:34.731Z,10.20
2019-04-03T09:48:06.154Z,10.80
2019-04-03T09:50:36.753Z,10.30
2019-04-03T09:53:08.894Z,10.32
2019-04-03T09:55:40.113Z,10.10
2019-04-03T09:58:10.993Z,10.35
2019-04-03T10:00:42.943Z,10.93
2019-04-03T10:03:14.004Z,11.08
2019-04-03T10:05:45.135Z,10.53
2019-04-03T10:08:15.788Z,10.30
2019-04-03T10:10:47.086Z,9.95
2019-04-03T10:13:18.383Z,9.30
2019-04-03T10:15:49.200Z,10.70
2019-04-03T10:18:21.987Z,10.25
2019-04-03T10:20:52.078Z,11.18
2019-04-03T10:23:22.627Z,11.28
2019-04-03T10:25:53.699Z,11.00
2019-04-03T10:28:24.454Z,10.15
2019-04-03T10:30:55.134Z,10.15
2019-04-03T10:33:25.966Z,9.75
2019-04-03T10:35:56.866Z,9.83
2019-04-03T10:38:27.480Z,9.83
2019-04-03T10:40:58.595Z,9.43
2019-04-03T10:43:29.349Z,9.78
2019-04-03T10:46:00.104Z,9.28
2019-04-03T10:48:30.985Z,9.63
2019-04-03T10:51:01.853Z,9.40
2019-04-03T10:53:32.576Z,9.23
2019-04-03T10:56:03.422Z,9.40
2019-04-03T10:58:34.009Z,9.30
2019-04-03T11:01:04.871Z,9.25
2019-04-03T11:03:35.379Z,9.25
2019-04-03T11:06:06.246Z,8.85
2019-04-03T11:08:37.027Z,8.85
2019-04-03T11:11:07.591Z,8.33
2019-04-03T11:13:38.317Z,9.23
2019-04-03T11:16:08.880Z,8.88
2019-04-03T11:18:39.354Z,8.43
2019-04-03T11:21:12.179Z,8.75
2019-04-03T11:26:17.656Z,8.80
2019-04-03T11:28:47.014Z,8.50
2019-04-03T11:30:53.931Z,8.63
2019-04-03T11:31:26.086Z,8.68
2019-04-03T11:33:51.242Z,8.55
2019-04-03T11:36:24.795Z,9.03
2019-04-03T11:39:06.599Z,9.00
2019-04-03T11:41:26.986Z,9.15
2019-04-03T11:43:57.724Z,8.55
2019-04-03T11:46:28.244Z,8.78
2019-04-03T11:48:58.869Z,8.75
2019-04-03T11:51:30.247Z,8.90
2019-04-03T11:54:01.102Z,8.50
2019-04-03T11:56:31.761Z,8.85
2019-04-03T11:59:02.415Z,9.13
2019-04-03T12:01:33.149Z,9.40
2019-04-03T12:04:03.888Z,9.00
2019-04-03T12:06:34.644Z,8.75
2019-04-03T12:09:07.094Z,8.50
2019-04-03T12:11:39.205Z,9.35
2019-04-03T12:14:10.618Z,8.30
2019-04-03T12:16:41.514Z,8.70
2019-04-03T12:19:12.116Z,9.13
2019-04-03T12:21:42.997Z,8.68
2019-04-03T12:24:13.832Z,9.10
2019-04-03T12:26:44.716Z,9.05
2019-04-03T12:29:15.284Z,8.65
2019-04-03T12:31:45.956Z,8.38
2019-04-03T12:34:17.297Z,9.00
2019-04-03T12:36:47.910Z,8.65
2019-04-03T12:39:28.154Z,8.58
2019-04-03T12:41:59.275Z,9.00
2019-04-03T12:44:30.153Z,8.55
2019-04-03T12:47:00.601Z,9.38
2019-04-03T12:49:31.264Z,9.03
2019-04-03T12:52:03.695Z,9.30
2019-04-03T12:54:34.394Z,8.63
2019-04-03T12:57:04.970Z,9.00
2019-04-03T12:59:36.086Z,9.20
2019-04-03T13:02:08.438Z,9.70
2019-04-03T13:04:41.490Z,8.75
2019-04-03T13:07:14.473Z,9.03
2019-04-03T13:09:47.734Z,9.60
2019-04-03T13:12:23.088Z,9.25
2019-04-03T13:14:53.823Z,10.28
2019-04-03T13:17:25.845Z,9.60
2019-04-03T13:20:04.497Z,9.85
2019-04-03T13:22:32.337Z,10.72
2019-04-03T13:25:03.051Z,10.08
2019-04-03T13:27:34.388Z,9.85
2019-04-03T13:30:05.630Z,9.93
2019-04-03T13:32:37.257Z,10.38
2019-04-03T13:35:08.190Z,9.78
2019-04-03T13:37:38.992Z,10.13
2019-04-03T13:40:10.214Z,9.30
2019-04-03T13:42:40.801Z,25.68
2019-04-03T13:45:11.414Z,27.05
2019-04-03T13:47:44.543Z,31.65
2019-04-03T13:50:14.018Z,44.42
2019-04-03T13:52:48.488Z,73.15
2019-04-03T13:55:16.959Z,57.93
2019-04-03T13:57:50.364Z,76.67
2019-04-03T14:00:23.665Z,60.60
2019-04-03T14:02:56.880Z,73.65
2019-04-03T14:05:27.931Z,51.05
2019-04-03T14:07:58.658Z,41.28
2019-04-03T14:10:29.163Z,36.83
2019-04-03T14:13:00.052Z,34.48
2019-04-03T14:15:31.187Z,30.92
2019-04-03T14:18:01.741Z,30.50
2019-04-03T14:20:32.563Z,29.50
2019-04-03T14:23:04.098Z,28.85
2019-04-03T14:25:38.029Z,28.55
2019-04-03T14:28:08.210Z,28.40
2019-04-03T14:30:39.396Z,25.70
2019-04-03T14:33:12.572Z,24.75
2019-04-03T14:35:51.187Z,24.07
2019-04-03T14:38:16.204Z,22.37
2019-04-03T14:40:47.167Z,21.40
2019-04-03T14:43:17.821Z,21.73
2019-04-03T14:45:49.533Z,21.50
2019-04-03T14:48:20.587Z,20.23
2019-04-03T14:50:51.320Z,20.62
2019-04-03T14:53:22.551Z,19.35
2019-04-03T14:55:53.158Z,20.57
2019-04-03T14:58:26.911Z,19.75
2019-04-03T15:00:56.425Z,19.25
2019-04-03T15:03:27.966Z,18.60
2019-04-03T15:05:59.416Z,18.05
2019-04-03T15:08:30.393Z,18.15
2019-04-03T15:11:02.990Z,17.80
2019-04-03T15:13:33.240Z,16.62
2019-04-03T15:16:04.140Z,15.80
2019-04-03T15:18:34.962Z,15.30
2019-04-03T15:21:05.750Z,14.78
2019-04-03T15:23:40.452Z,13.90
2019-04-03T15:26:08.580Z,13.00
2019-04-03T15:28:39.814Z,14.85
2019-04-03T15:31:13.275Z,13.80
2019-04-03T15:33:43.582Z,12.95
2019-04-03T15:36:14.533Z,13.28
2019-04-03T15:38:46.360Z,12.78
2019-04-03T15:41:17.369Z,13.32
2019-04-03T15:43:51.289Z,12.60
2019-04-03T15:46:20.962Z,11.60
2019-04-03T15:48:53.583Z,11.90
2019-04-03T15:51:24.188Z,12.20
2019-04-03T15:53:55.035Z,12.55
2019-04-03T15:56:26.017Z,12.28
2019-04-03T15:58:57.868Z,11.85
2019-04-03T16:01:28.948Z,11.93
2019-04-03T16:04:00.053Z,11.20
2019-04-03T16:06:30.847Z,11.78
2019-04-03T16:09:01.525Z,11.70
2019-04-03T16:11:31.837Z,12.10
2019-04-03T16:14:02.656Z,12.50
2019-04-03T16:17:18.891Z,12.88
2019-04-03T16:19:52.133Z,20.77
2019-04-03T16:22:22.560Z,15.95
2019-04-03T16:24:54.343Z,15.03
2019-04-03T16:27:27.661Z,14.13
2019-04-03T16:29:57.294Z,14.75
2019-04-03T16:32:28.252Z,28.87
2019-04-03T16:34:58.967Z,23.90
2019-04-03T16:37:29.969Z,22.25
2019-04-03T16:40:04.172Z,21.30
2019-04-03T16:42:33.227Z,19.87
2019-04-03T16:45:08.154Z,19.15
2019-04-03T16:47:36.834Z,15.80
2019-04-03T16:50:09.946Z,15.25
2019-04-03T16:52:41.130Z,14.50
2019-04-03T16:55:11.901Z,13.83
2019-04-03T16:57:42.821Z,13.55
2019-04-03T17:00:13.438Z,13.68
2019-04-03T17:02:44.155Z,13.50
2019-04-03T17:05:15.526Z,13.20
2019-04-03T17:07:46.367Z,13.65
2019-04-03T17:10:16.780Z,13.03
2019-04-03T17:12:49.611Z,13.05
2019-04-03T17:15:19.896Z,12.53
2019-04-03T17:17:50.408Z,11.25
2019-04-03T17:20:22.615Z,12.03
2019-04-03T17:22:53.516Z,11.63
2019-04-03T17:25:26.885Z,11.78
2019-04-03T17:27:58.861Z,12.28
2019-04-03T17:30:30.641Z,12.45
2019-04-03T17:33:03.393Z,12.63
2019-04-03T17:35:34.319Z,11.95
2019-04-03T17:38:05.095Z,11.45
2019-04-03T17:40:36.572Z,11.38
2019-04-03T17:43:07.945Z,11.22
2019-04-03T17:45:38.549Z,10.40
2019-04-03T17:48:09.339Z,10.60
2019-04-03T17:50:40.064Z,9.85
2019-04-03T17:53:10.595Z,11.70
2019-04-03T17:55:42.397Z,12.23
2019-04-03T17:58:16.461Z,11.57
2019-04-03T18:00:46.405Z,12.58
2019-04-03T18:03:19.286Z,22.27
2019-04-03T18:05:49.274Z,13.78
2019-04-03T18:08:20.294Z,11.20
2019-04-03T18:10:50.747Z,10.85
2019-04-03T18:13:23.193Z,9.88
2019-04-03T18:15:53.926Z,10.13
2019-04-03T18:18:24.662Z,9.85
2019-04-03T18:20:55.250Z,9.93
2019-04-03T18:23:27.262Z,9.35
2019-04-03T18:25:59.718Z,9.83
2019-04-03T18:28:30.299Z,9.70
2019-04-03T18:31:00.901Z,9.25
2019-04-03T18:33:31.321Z,9.43
2019-04-03T18:36:01.979Z,10.18
2019-04-03T18:38:32.536Z,9.35
2019-04-03T18:41:04.355Z,8.95
2019-04-03T18:43:36.170Z,9.08
2019-04-03T18:46:10.565Z,8.90
2019-04-03T18:48:52.865Z,9.30
2019-04-03T18:51:14.688Z,9.40
2019-04-03T18:53:45.252Z,9.90
2019-04-03T18:56:16.179Z,9.70
2019-04-03T18:58:48.014Z,9.90
2019-04-03T19:01:18.941Z,9.33
2019-04-03T19:03:49.819Z,9.40
2019-04-03T19:06:21.372Z,9.08
2019-04-03T19:08:52.260Z,10.05
2019-04-03T19:11:23.298Z,9.70
2019-04-03T19:13:54.488Z,8.95
2019-04-03T19:16:29.679Z,9.80
2019-04-03T19:19:07.389Z,10.23
2019-04-03T19:21:30.795Z,9.40
2019-04-03T19:24:02.082Z,9.60
2019-04-03T19:26:33.205Z,9.20
2019-04-03T19:29:05.163Z,9.15
2019-04-03T19:31:39.932Z,9.25
2019-04-03T19:34:10.006Z,9.58
2019-04-03T19:36:43.021Z,9.48
2019-04-03T19:39:13.742Z,8.78
2019-04-03T19:41:44.741Z,9.05
2019-04-03T19:44:16.192Z,8.50
2019-04-03T19:46:49.101Z,9.05
2019-04-03T19:49:19.887Z,9.00
2019-04-03T19:51:50.750Z,9.45
2019-04-03T19:54:21.384Z,9.00
2019-04-03T19:56:52.095Z,9.03
2019-04-03T19:59:22.662Z,8.83
2019-04-03T20:01:53.624Z,9.05
2019-04-03T20:04:24.200Z,9.93
2019-04-03T20:06:55.290Z,9.15
2019-04-03T20:09:26.108Z,9.88
2019-04-03T20:11:56.943Z,10.53
2019-04-03T20:14:27.745Z,11.08
2019-04-03T20:16:58.667Z,10.50
2019-04-03T20:19:29.454Z,10.20
2019-04-03T20:22:00.290Z,10.82
2019-04-03T20:24:31.213Z,10.78
2019-04-03T20:27:02.018Z,10.13
2019-04-03T20:29:32.719Z,10.13
2019-04-03T20:32:05.016Z,10.35
2019-04-03T20:34:35.931Z,10.45
2019-04-03T20:37:06.584Z,9.93
2019-04-03T20:39:37.492Z,9.90
2019-04-03T20:42:08.267Z,9.98
2019-04-03T20:44:39.270Z,9.63
2019-04-03T20:47:10.198Z,9.35
2019-04-03T20:49:43.599Z,10.18
2019-04-03T20:52:13.494Z,10.43
2019-04-03T20:54:44.381Z,10.10
2019-04-03T20:57:15.153Z,9.20
2019-04-03T20:59:58.650Z,9.68
2019-04-03T21:02:17.992Z,9.73
2019-04-03T21:04:49.001Z,9.28
2019-04-03T21:07:23.637Z,9.45
2019-04-03T21:09:54.312Z,9.90
2019-04-03T21:12:25.107Z,9.63
2019-04-03T21:15:07.619Z,9.65
2019-04-03T21:17:27.865Z,9.95
2019-04-03T21:20:00.274Z,9.28
2019-04-03T21:22:31.123Z,9.50
2019-04-03T21:25:04.892Z,9.38
2019-04-03T21:27:34.050Z,9.85
2019-04-03T21:30:04.760Z,10.40
2019-04-03T21:32:35.458Z,9.73
2019-04-03T21:35:06.041Z,10.35
2019-04-03T21:37:39.599Z,10.28
2019-04-03T21:40:09.033Z,10.95
2019-04-03T21:42:39.825Z,9.43
2019-04-03T21:45:11.022Z,10.45
2019-04-03T21:47:42.757Z,10.00
2019-04-03T21:50:15.157Z,9.13
2019-04-03T21:52:45.614Z,9.50
2019-04-03T21:55:16.173Z,9.98
2019-04-03T21:57:47.129Z,10.40
2019-04-03T22:00:37.144Z,9.48
2019-04-03T22:03:08.508Z,9.53
2019-04-03T22:05:40.043Z,9.43
2019-04-03T22:08:11.615Z,9.68
2019-04-03T22:10:42.443Z,9.95
2019-04-03T22:13:13.602Z,9.63
2019-04-03T22:15:45.556Z,9.75
2019-04-03T22:18:16.934Z,10.05
2019-04-03T22:20:48.272Z,10.30
2019-04-03T22:23:18.953Z,10.08
2019-04-03T22:25:49.405Z,9.95
2019-04-03T22:28:19.958Z,9.93
2019-04-03T22:30:52.519Z,9.55
2019-04-03T22:33:24.051Z,9.43
2019-04-03T22:35:54.515Z,9.63
2019-04-03T22:38:25.067Z,9.20
2019-04-03T22:40:56.686Z,8.60
2019-04-03T22:43:28.383Z,9.50
2019-04-03T22:46:01.859Z,9.60
2019-04-03T22:48:35.288Z,9.68
2019-04-03T22:51:09.144Z,8.55
2019-04-03T22:53:45.554Z,9.13
2019-04-03T22:56:18.993Z,9.10
2019-04-03T22:58:53.368Z,8.90
2019-04-03T23:01:27.938Z,8.80
2019-04-03T23:04:05.030Z,8.23
2019-04-03T23:06:37.897Z,8.65
2019-04-03T23:09:12.260Z,9.23
2019-04-03T23:11:46.729Z,8.65
2019-04-03T23:14:20.249Z,8.10
2019-04-03T23:16:54.143Z,8.60
2019-04-03T23:19:27.910Z,8.23
2019-04-03T23:22:01.993Z,8.83
2019-04-03T23:24:36.922Z,8.55
2019-04-03T23:27:11.490Z,8.43
2019-04-03T23:29:45.128Z,8.03
2019-04-03T23:32:19.157Z,8.20
2019-04-03T23:34:52.923Z,8.25
2019-04-03T23:37:24.793Z,8.18
2019-04-03T23:39:56.663Z,8.10
2019-04-03T23:42:27.743Z,7.92
2019-04-03T23:44:58.926Z,7.70
2019-04-03T23:47:30.201Z,7.87
2019-04-03T23:50:01.145Z,7.72
2019-04-03T23:52:32.136Z,7.67
2019-04-03T23:55:04.541Z,8.30
2019-04-03T23:57:35.456Z,7.40
